This is the latest recevied weather packets stored in our database for station/object KM7BEO. If no packets are shown the sender has not sent any weather packets the latest 10 day(s).
| Time | Temp. | Humidity | Pressure | Rain* | Wind** | Luminosity | Snow |
|---|---|---|---|---|---|---|---|
| 1777746835 | 18.33° C | 65% | 1016.7 hPa | 0 mm | - | 602 W/m² | - |
| 1777746530 | 18.33° C | 67% | 1016.9 hPa | 0 mm | - | 588 W/m² | - |
| 1777746226 | 18.33° C | 67% | 1016.8 hPa | 0 mm | - | 576 W/m² | - |
| 1777745922 | 18.33° C | 67% | 1016.8 hPa | 0 mm | - | 574 W/m² | - |
| 1777745622 | 17.78° C | 68% | 1016.8 hPa | 0 mm | - | 564 W/m² | - |
| 1777745319 | 18.33° C | 67% | 1016.8 hPa | 0 mm | - | 545 W/m² | - |
| 1777745016 | 17.78° C | 70% | 1016.8 hPa | 0 mm | - | 544 W/m² | - |
| 1777744712 | 17.22° C | 70% | 1016.9 hPa | 0 mm | - | 544 W/m² | - |
| 1777744406 | 17.22° C | 70% | 1016.8 hPa | 0 mm | - | 423 W/m² | - |
| 1777744103 | 16.11° C | 73% | 1017 hPa | 0 mm | - | 521 W/m² | - |
| 1777743800 | 16.11° C | 74% | 1017.2 hPa | 0 mm | - | 518 W/m² | - |
| 1777743497 | 15.56° C | 76% | 1017 hPa | 0 mm | - | 504 W/m² | - |
| 1777743194 | 15° C | 77% | 1017.1 hPa | 0 mm | - | 503 W/m² | - |
| 1777742892 | 15° C | 76% | 1017.3 hPa | 0 mm | - | 493 W/m² | - |
| 1777742588 | 16.11° C | 75% | 1017.4 hPa | 0 mm | - | 471 W/m² | - |
| 1777742284 | 16.67° C | 73% | 1017.3 hPa | 0 mm | - | 459 W/m² | - |
| 1777741981 | 15.56° C | 76% | 1017.3 hPa | 0 mm | - | 445 W/m² | - |
| 1777741679 | 15.56° C | 75% | 1017.2 hPa | 0 mm | - | 440 W/m² | - |
| 1777741375 | 15.56° C | 76% | 1017.2 hPa | 0 mm | - | 432 W/m² | - |
| 1777741071 | 15° C | 80% | 1017.3 hPa | 0 mm | - | 431 W/m² | - |
| 1777740768 | 15° C | 79% | 1017.2 hPa | 0 mm | - | 250 W/m² | - |
| 1777740464 | 15° C | 79% | 1017.3 hPa | 0 mm | - | 465 W/m² | - |
| 1777740162 | 14.44° C | 81% | 1017.3 hPa | 0 mm | - | 278 W/m² | - |
| 1777739858 | 14.44° C | 80% | 1017.2 hPa | 0 mm | - | 243 W/m² | - |
| 1777739555 | 14.44° C | 81% | 1017.2 hPa | 0 mm | - | 216 W/m² | - |
* Rain latest hour (hover to see other rain measurements)
** Current wind speed in m/s (hover to see current wind gust speed)